createdAt,value
2023-02-27T00:00:54.572Z,80.7
2023-02-27T00:02:10.867Z,80.5
2023-02-27T00:03:27.155Z,81.4
2023-02-27T00:04:43.462Z,81.3
2023-02-27T00:05:59.743Z,81.2
2023-02-27T00:07:16.043Z,81.1
2023-02-27T00:08:32.358Z,81.3
2023-02-27T00:09:48.630Z,81.4
2023-02-27T00:11:04.934Z,81.5
2023-02-27T00:12:21.230Z,81.3
2023-02-27T00:13:36.552Z,81.3
2023-02-27T00:14:52.820Z,81.5
2023-02-27T00:16:09.114Z,80.8
2023-02-27T00:17:25.418Z,80.3
2023-02-27T00:18:41.734Z,80.6
2023-02-27T00:19:58.015Z,81
2023-02-27T00:21:14.320Z,81.5
2023-02-27T00:22:30.607Z,81.3
2023-02-27T00:23:46.903Z,81.3
2023-02-27T00:25:03.207Z,82.5
2023-02-27T00:26:19.475Z,82
2023-02-27T00:27:35.786Z,81.4
2023-02-27T00:28:52.060Z,81.3
2023-02-27T00:30:08.374Z,81.4
2023-02-27T00:31:23.693Z,81.4
2023-02-27T00:32:39.980Z,81.8
2023-02-27T00:33:56.279Z,81.8
2023-02-27T00:35:12.568Z,81.8
2023-02-27T00:36:28.861Z,81.9
2023-02-27T00:37:45.158Z,82.5
2023-02-27T00:39:01.444Z,83.3
2023-02-27T00:40:17.744Z,83.5
2023-02-27T00:41:34.037Z,83.5
2023-02-27T00:42:50.338Z,82.8
2023-02-27T00:44:06.701Z,82.5
2023-02-27T00:45:22.993Z,82
2023-02-27T00:46:39.286Z,82.1
2023-02-27T00:47:55.566Z,82.1
2023-02-27T00:49:10.893Z,82.8
2023-02-27T00:50:27.178Z,82.3
2023-02-27T00:51:43.458Z,82.1
2023-02-27T00:52:59.752Z,82.3
2023-02-27T00:54:16.046Z,82.2
2023-02-27T00:55:32.361Z,82.3
2023-02-27T00:56:48.636Z,81.9
2023-02-27T00:58:04.954Z,82.4
2023-02-27T00:59:21.241Z,83.2
2023-02-27T01:00:37.535Z,83.3
2023-02-27T01:01:53.820Z,83.5
2023-02-27T01:03:10.115Z,83.8
2023-02-27T01:04:26.424Z,83.2
2023-02-27T01:05:42.728Z,83.4
2023-02-27T01:06:58.023Z,83.2
2023-02-27T01:08:14.327Z,82.8
2023-02-27T01:09:30.602Z,82.6
2023-02-27T01:10:46.921Z,82.1
2023-02-27T01:12:03.204Z,82.1
2023-02-27T01:13:19.509Z,82.7
2023-02-27T01:14:35.776Z,82.6
2023-02-27T01:15:52.087Z,82.3
2023-02-27T01:17:08.383Z,82.3
2023-02-27T01:18:24.682Z,82
2023-02-27T01:19:40.955Z,82.3
2023-02-27T01:20:57.264Z,82
2023-02-27T01:22:13.542Z,81.4
2023-02-27T01:23:29.863Z,81.3
2023-02-27T01:24:45.179Z,81.3
2023-02-27T01:26:01.455Z,81.4
2023-02-27T01:27:17.765Z,81.5
2023-02-27T01:28:34.037Z,81.4
2023-02-27T01:29:50.325Z,81.5
2023-02-27T01:31:06.638Z,81.6
2023-02-27T01:32:22.930Z,81.6
2023-02-27T01:33:39.217Z,81.1
2023-02-27T01:34:55.502Z,81.4
2023-02-27T01:36:11.801Z,81.9
2023-02-27T01:37:28.121Z,82.2
2023-02-27T01:38:44.390Z,81.4
2023-02-27T01:40:00.684Z,81.8
2023-02-27T01:41:16.976Z,82.3
2023-02-27T01:42:32.307Z,81.4
2023-02-27T01:43:48.606Z,81.2
2023-02-27T01:45:04.875Z,81.2
2023-02-27T01:46:21.188Z,80.8
2023-02-27T01:47:37.481Z,81.2
2023-02-27T01:48:53.791Z,81.2
2023-02-27T01:50:10.077Z,81.3
2023-02-27T01:51:26.352Z,81.4
2023-02-27T01:52:42.651Z,81
2023-02-27T01:53:58.942Z,81.3
2023-02-27T01:55:15.245Z,81.7
2023-02-27T01:56:31.525Z,81.2
2023-02-27T01:57:47.820Z,81
2023-02-27T01:59:04.248Z,81.2
2023-02-27T02:00:20.533Z,81.1
2023-02-27T02:01:36.829Z,81.2
2023-02-27T02:02:53.146Z,81.3
2023-02-27T02:04:09.423Z,81.2
2023-02-27T02:05:25.714Z,81.3
2023-02-27T02:06:42.017Z,81.4
2023-02-27T02:07:58.328Z,81.5
2023-02-27T02:09:14.603Z,81.5
2023-02-27T02:10:30.883Z,82.1
2023-02-27T02:11:47.206Z,81.4
2023-02-27T02:13:03.504Z,81.5
2023-02-27T02:14:19.770Z,81.8
2023-02-27T02:15:35.092Z,82
2023-02-27T02:16:51.387Z,81.9
2023-02-27T02:18:07.681Z,82
2023-02-27T02:19:23.974Z,81.9
2023-02-27T02:20:40.274Z,81.9
2023-02-27T02:21:56.551Z,81.9
2023-02-27T02:23:12.867Z,81.8
2023-02-27T02:24:29.140Z,81.8
2023-02-27T02:25:45.450Z,82.1
2023-02-27T02:27:01.747Z,82.7
2023-02-27T02:28:18.046Z,82.7
2023-02-27T02:29:34.331Z,82.9
2023-02-27T02:30:50.626Z,83
2023-02-27T02:32:05.944Z,82.8
2023-02-27T02:33:22.237Z,82.7
2023-02-27T02:34:38.526Z,82.4
2023-02-27T02:35:54.804Z,81.7
2023-02-27T02:37:11.114Z,80.6
2023-02-27T02:38:27.412Z,80.6
2023-02-27T02:39:43.699Z,81
2023-02-27T02:41:00.005Z,81
2023-02-27T02:42:16.294Z,81.4
2023-02-27T02:43:32.584Z,81.6
2023-02-27T02:44:48.878Z,82
2023-02-27T02:46:05.166Z,82.4
2023-02-27T02:47:21.454Z,82
2023-02-27T02:48:36.777Z,81.8
2023-02-27T02:49:53.076Z,82.1
2023-02-27T02:51:09.350Z,82.6
2023-02-27T02:52:25.664Z,82.3
2023-02-27T02:53:41.967Z,82.1
2023-02-27T02:54:58.257Z,82.4
2023-02-27T02:56:14.546Z,82.9
2023-02-27T02:57:30.826Z,82.7
2023-02-27T02:58:47.150Z,82.5
2023-02-27T03:00:03.460Z,82.1
2023-02-27T03:01:19.764Z,81.4
2023-02-27T03:02:36.066Z,80.6
2023-02-27T03:03:52.350Z,80.2
2023-02-27T03:05:08.646Z,80.7
2023-02-27T03:06:23.963Z,80.4
2023-02-27T03:07:40.231Z,80.2
2023-02-27T03:08:56.534Z,80
2023-02-27T03:10:12.821Z,80
2023-02-27T03:11:29.121Z,79.5
2023-02-27T03:12:45.412Z,79.6
2023-02-27T03:14:01.707Z,80.5
2023-02-27T03:15:18.018Z,80.8
2023-02-27T03:16:34.290Z,81.3
2023-02-27T03:17:50.601Z,81.6
2023-02-27T03:19:06.903Z,81.5
2023-02-27T03:20:23.190Z,81.3
2023-02-27T03:21:39.493Z,81.4
2023-02-27T03:22:55.778Z,81.2
2023-02-27T03:24:11.074Z,80.9
2023-02-27T03:25:27.392Z,81
2023-02-27T03:26:43.697Z,81.4
2023-02-27T03:27:59.975Z,81.4
2023-02-27T03:29:16.275Z,81.3
2023-02-27T03:30:32.569Z,80.9
2023-02-27T03:31:48.869Z,80.4
2023-02-27T03:33:05.140Z,80.5
2023-02-27T03:34:21.453Z,80.6
2023-02-27T03:35:37.741Z,80.1
2023-02-27T03:36:54.022Z,80.4
2023-02-27T03:38:10.329Z,80.3
2023-02-27T03:39:26.628Z,80.4
2023-02-27T03:40:42.918Z,79.9
2023-02-27T03:41:58.229Z,79.5
2023-02-27T03:43:14.527Z,79.5
2023-02-27T03:44:30.829Z,80.1
2023-02-27T03:45:47.110Z,80.2
2023-02-27T03:47:03.387Z,78.8
2023-02-27T03:48:19.703Z,78.9
2023-02-27T03:49:35.994Z,79.1
2023-02-27T03:50:52.286Z,78.9
2023-02-27T03:52:08.584Z,78.8
2023-02-27T03:53:23.897Z,78.9
2023-02-27T03:54:40.201Z,78.4
2023-02-27T03:55:56.471Z,78.4
2023-02-27T03:57:12.797Z,78.3
2023-02-27T03:58:29.075Z,78.2
2023-02-27T03:59:45.358Z,78.5
2023-02-27T04:01:01.647Z,78.4
2023-02-27T04:02:17.941Z,78.8
2023-02-27T04:03:34.240Z,79
2023-02-27T04:04:50.552Z,78.9
2023-02-27T04:06:06.844Z,78.9
2023-02-27T04:07:23.141Z,78.8
2023-02-27T04:08:39.427Z,78.6
2023-02-27T04:09:55.727Z,78.8
2023-02-27T04:11:11.035Z,79.7
2023-02-27T04:12:27.327Z,80.1
2023-02-27T04:13:43.625Z,79.4
2023-02-27T04:14:59.911Z,80
2023-02-27T04:16:16.196Z,79.5
2023-02-27T04:17:32.491Z,79.5
2023-02-27T04:18:48.000Z,80.1
2023-02-27T04:20:05.078Z,79.5
2023-02-27T04:21:21.385Z,79.3
2023-02-27T04:22:37.682Z,79.4
2023-02-27T04:23:53.978Z,79.4
2023-02-27T04:25:10.265Z,79.7
2023-02-27T04:26:26.567Z,79.3
2023-02-27T04:27:42.845Z,78.8
2023-02-27T04:28:58.177Z,79
2023-02-27T04:30:14.479Z,79.2
2023-02-27T04:31:30.774Z,79.6
2023-02-27T04:32:47.053Z,79.7
2023-02-27T04:34:03.353Z,80.1
2023-02-27T04:35:19.659Z,80.3
2023-02-27T04:36:35.937Z,80.7
2023-02-27T04:37:52.238Z,81.2
2023-02-27T04:39:08.539Z,81.1
2023-02-27T04:40:24.825Z,80
2023-02-27T04:41:41.125Z,80.1
2023-02-27T04:42:57.411Z,80.2
2023-02-27T04:44:13.708Z,80.3
2023-02-27T04:45:29.994Z,80.7
2023-02-27T04:46:45.314Z,80.7
2023-02-27T04:48:01.608Z,80.6
2023-02-27T04:49:17.910Z,80.3
2023-02-27T04:50:34.191Z,80.1
2023-02-27T04:51:50.466Z,80.1
2023-02-27T04:53:06.789Z,80.3
2023-02-27T04:54:23.074Z,80.1
2023-02-27T04:55:39.364Z,80.5
2023-02-27T04:56:55.675Z,80.4
2023-02-27T04:58:11.940Z,79.9
2023-02-27T04:59:28.233Z,80.2
2023-02-27T05:00:44.547Z,79.9
2023-02-27T05:02:00.846Z,80.5
2023-02-27T05:03:17.128Z,80.3
2023-02-27T05:04:32.441Z,80.2
2023-02-27T05:05:48.726Z,80.1
2023-02-27T05:07:05.021Z,79.9
2023-02-27T05:08:21.332Z,79.8
2023-02-27T05:09:37.619Z,79.7
2023-02-27T05:10:53.904Z,79.6
2023-02-27T05:12:10.216Z,79.7
2023-02-27T05:13:26.508Z,79.6
2023-02-27T05:14:42.811Z,79.6
2023-02-27T05:15:59.102Z,79.5
2023-02-27T05:17:15.389Z,79.5
2023-02-27T05:18:31.691Z,79.8
2023-02-27T05:19:47.976Z,79.5
2023-02-27T05:21:04.274Z,79.4
2023-02-27T05:22:19.596Z,79.3
2023-02-27T05:23:35.860Z,79.7
2023-02-27T05:24:52.160Z,80.1
2023-02-27T05:26:08.468Z,80.6
2023-02-27T05:27:24.742Z,81
2023-02-27T05:28:41.055Z,80.7
2023-02-27T05:29:57.316Z,80.9
2023-02-27T05:31:13.530Z,81
2023-02-27T05:32:29.781Z,81.2
2023-02-27T05:33:46.004Z,81.1
2023-02-27T05:35:02.240Z,80.7
2023-02-27T05:36:18.493Z,80.5
2023-02-27T05:37:34.724Z,80.6
2023-02-27T05:38:50.979Z,80.7
2023-02-27T05:40:06.234Z,81.2
2023-02-27T05:41:22.495Z,81.2
2023-02-27T05:42:38.729Z,81
2023-02-27T05:43:54.940Z,81.2
2023-02-27T05:45:11.190Z,81.3
2023-02-27T05:46:27.419Z,81
2023-02-27T05:47:43.683Z,81.3
2023-02-27T05:48:59.902Z,81.4
2023-02-27T05:50:16.174Z,81.3
2023-02-27T05:51:32.407Z,81.2
2023-02-27T05:52:48.654Z,80.8
2023-02-27T05:54:04.871Z,81
2023-02-27T05:55:21.111Z,80.6
2023-02-27T05:56:37.353Z,81
2023-02-27T05:57:52.626Z,80.4
2023-02-27T05:59:08.851Z,80.5
2023-02-27T06:00:25.093Z,81
2023-02-27T06:01:41.339Z,81
2023-02-27T06:02:57.569Z,81.7
2023-02-27T06:04:13.823Z,82.3
2023-02-27T06:05:30.067Z,82.2
2023-02-27T06:06:46.290Z,82.1
2023-02-27T06:08:02.529Z,82.2
2023-02-27T06:09:18.797Z,82.4
2023-02-27T06:10:35.029Z,82.5
2023-02-27T06:11:51.272Z,82.5
2023-02-27T06:13:07.521Z,83.2
2023-02-27T06:14:23.747Z,83.7
2023-02-27T06:15:39.008Z,83.8
2023-02-27T06:16:55.247Z,83.8
2023-02-27T06:18:11.484Z,83.9
2023-02-27T06:19:27.708Z,84.3
2023-02-27T06:20:43.954Z,84.5
2023-02-27T06:22:00.203Z,84.6
2023-02-27T06:23:16.459Z,84.6
2023-02-27T06:24:32.678Z,84.2
2023-02-27T06:25:48.912Z,84.3
2023-02-27T06:27:05.179Z,84.4
2023-02-27T06:28:21.397Z,84.4
2023-02-27T06:29:37.647Z,84.4
2023-02-27T06:30:53.889Z,84.4
2023-02-27T06:32:10.128Z,84.5
2023-02-27T06:33:25.373Z,84.8
2023-02-27T06:34:41.000Z,84.8
2023-02-27T06:35:57.884Z,84.3
2023-02-27T06:37:14.107Z,84.4
2023-02-27T06:38:30.355Z,84.5
2023-02-27T06:39:46.594Z,84.5
2023-02-27T06:41:02.839Z,84.5
2023-02-27T06:42:19.077Z,84.3
2023-02-27T06:43:35.320Z,84.2
2023-02-27T06:44:51.547Z,84
2023-02-27T06:46:07.793Z,83.9
2023-02-27T06:47:24.030Z,83.9
2023-02-27T06:48:40.256Z,84.1
2023-02-27T06:49:56.494Z,83.8
2023-02-27T06:51:11.770Z,83.8
2023-02-27T06:52:28.007Z,83.9
2023-02-27T06:53:44.261Z,83.8
2023-02-27T06:55:00.487Z,83.9
2023-02-27T06:56:16.714Z,83.6
2023-02-27T06:57:32.953Z,83.9
2023-02-27T06:58:49.213Z,83.7
2023-02-27T07:00:05.459Z,83.5
2023-02-27T07:01:21.700Z,83.5
2023-02-27T07:02:37.944Z,83.3
2023-02-27T07:03:54.149Z,82.8
2023-02-27T07:05:10.392Z,82.8
2023-02-27T07:06:26.663Z,82.9
2023-02-27T07:07:42.903Z,82.5
2023-02-27T07:08:58.158Z,82
2023-02-27T07:10:14.394Z,82.1
2023-02-27T07:11:30.649Z,81.7
2023-02-27T07:12:46.851Z,82
2023-02-27T07:14:03.108Z,81.5
2023-02-27T07:15:19.348Z,81.5
2023-02-27T07:16:35.609Z,81.5
2023-02-27T07:17:51.837Z,81.6
2023-02-27T07:19:08.075Z,81.2
2023-02-27T07:20:24.319Z,81.6
2023-02-27T07:21:40.553Z,82
2023-02-27T07:22:56.773Z,82
2023-02-27T07:24:13.034Z,81.9
2023-02-27T07:25:29.271Z,81.6
2023-02-27T07:26:44.533Z,81
2023-02-27T07:28:00.769Z,81.7
2023-02-27T07:29:17.010Z,81.7
2023-02-27T07:30:33.255Z,82.2
2023-02-27T07:31:49.490Z,82.5
2023-02-27T07:33:05.734Z,82.9
2023-02-27T07:34:21.972Z,83.1
2023-02-27T07:35:38.202Z,82.5
2023-02-27T07:36:54.469Z,82
2023-02-27T07:38:10.700Z,81.8
2023-02-27T07:39:26.915Z,81.6
2023-02-27T07:40:43.184Z,81.3
2023-02-27T07:41:59.400Z,81.5
2023-02-27T07:43:15.661Z,81.3
2023-02-27T07:44:30.893Z,81.3
2023-02-27T07:45:47.158Z,81.3
2023-02-27T07:47:03.372Z,81.9
2023-02-27T07:48:19.632Z,81.5
2023-02-27T07:49:35.871Z,81.2
2023-02-27T07:50:52.096Z,81.2
2023-02-27T07:52:08.339Z,81.3
2023-02-27T07:53:24.591Z,81.3
2023-02-27T07:54:40.823Z,81.2
2023-02-27T07:55:57.087Z,80.7
2023-02-27T07:57:13.313Z,80.5
2023-02-27T07:58:29.563Z,80.2
2023-02-27T07:59:45.801Z,80.1
2023-02-27T08:01:02.040Z,80
2023-02-27T08:02:17.275Z,80.2
2023-02-27T08:03:33.534Z,80.5
2023-02-27T08:04:49.768Z,80.8
2023-02-27T08:06:06.015Z,80.3
2023-02-27T08:07:22.245Z,79.5
2023-02-27T08:08:37.525Z,80.1
2023-02-27T08:09:53.760Z,80.2
2023-02-27T08:11:10.012Z,80.2
2023-02-27T08:12:26.254Z,80.4
2023-02-27T08:13:42.470Z,80.3
2023-02-27T08:14:58.702Z,80.3
2023-02-27T08:16:14.943Z,80.3
2023-02-27T08:17:31.199Z,80.5
2023-02-27T08:18:47.436Z,80.6
2023-02-27T08:20:03.662Z,80.4
2023-02-27T08:21:19.904Z,79.9
2023-02-27T08:22:36.150Z,80.4
2023-02-27T08:23:52.396Z,80.9
2023-02-27T08:25:07.643Z,80.9
2023-02-27T08:26:23.882Z,81.1
2023-02-27T08:27:40.119Z,81.3
2023-02-27T08:28:56.360Z,81.1
2023-02-27T08:30:12.613Z,80.9
2023-02-27T08:31:28.840Z,81.3
2023-02-27T08:32:45.082Z,80.9
2023-02-27T08:34:01.329Z,81
2023-02-27T08:35:17.571Z,80.9
2023-02-27T08:36:33.808Z,80.7
2023-02-27T08:37:50.048Z,81.1
2023-02-27T08:39:06.284Z,80.5
2023-02-27T08:40:22.532Z,79.4
2023-02-27T08:41:38.767Z,78.9
2023-02-27T08:42:54.000Z,78.7
2023-02-27T08:44:10.273Z,78.1
2023-02-27T08:45:26.502Z,77.2
2023-02-27T08:46:42.749Z,76.9
2023-02-27T08:47:58.989Z,76.7
2023-02-27T08:49:15.229Z,76.2
2023-02-27T08:50:31.468Z,76.3
2023-02-27T08:51:47.705Z,76.1
2023-02-27T08:53:03.944Z,76.1
2023-02-27T08:54:20.183Z,76.1
2023-02-27T08:55:36.422Z,76.4
2023-02-27T08:56:52.664Z,76.3
2023-02-27T08:58:08.907Z,75.8
2023-02-27T08:59:24.170Z,76
2023-02-27T09:00:40.399Z,76.3
2023-02-27T09:01:56.659Z,76.4
2023-02-27T09:03:12.892Z,76.6
2023-02-27T09:04:29.134Z,76.1
2023-02-27T09:05:45.369Z,76.2
2023-02-27T09:07:01.599Z,76.8
2023-02-27T09:08:17.845Z,77
2023-02-27T09:09:34.093Z,76.5
2023-02-27T09:10:50.328Z,76.8
2023-02-27T09:12:06.573Z,77.2
2023-02-27T09:13:22.801Z,77.4
2023-02-27T09:14:39.049Z,76.8
2023-02-27T09:15:54.297Z,77
2023-02-27T09:17:10.548Z,76.5
2023-02-27T09:18:26.774Z,76.7
2023-02-27T09:19:43.020Z,76.4
2023-02-27T09:20:59.271Z,76.2
2023-02-27T09:22:15.497Z,76.2
2023-02-27T09:23:31.748Z,76.3
2023-02-27T09:24:47.973Z,76.7
2023-02-27T09:26:04.225Z,76.6
2023-02-27T09:27:20.475Z,76.5
2023-02-27T09:28:36.700Z,76.7
2023-02-27T09:29:52.933Z,76.5
2023-02-27T09:31:09.195Z,76.3
2023-02-27T09:32:24.434Z,76.1
2023-02-27T09:33:40.685Z,76.1
2023-02-27T09:34:56.917Z,75.2
2023-02-27T09:36:13.151Z,75.1
2023-02-27T09:37:29.401Z,75.1
2023-02-27T09:38:45.640Z,75.2
2023-02-27T09:40:01.875Z,74.8
2023-02-27T09:41:18.119Z,75
2023-02-27T09:42:34.365Z,75.4
2023-02-27T09:43:50.606Z,75.4
2023-02-27T09:45:06.833Z,75.1
2023-02-27T09:46:23.080Z,75.5
2023-02-27T09:47:39.314Z,75.2
2023-02-27T09:48:54.585Z,75.7
2023-02-27T09:50:10.823Z,75.4
2023-02-27T09:51:27.051Z,75.4
2023-02-27T09:52:43.302Z,75.3
2023-02-27T09:53:59.543Z,75.5
2023-02-27T09:55:15.778Z,76.3
2023-02-27T09:56:32.016Z,75.2
2023-02-27T09:57:48.266Z,75.3
2023-02-27T09:59:04.491Z,75.6
2023-02-27T10:00:20.727Z,75.1
2023-02-27T10:01:36.979Z,74.2
2023-02-27T10:02:53.215Z,74.9
2023-02-27T10:04:09.456Z,74.4
2023-02-27T10:05:25.829Z,74.6
2023-02-27T10:06:42.052Z,74.5
2023-02-27T10:07:58.301Z,74.4
2023-02-27T10:09:14.537Z,74
2023-02-27T10:10:30.775Z,74.4
2023-02-27T10:11:47.027Z,74.7
2023-02-27T10:13:03.268Z,74.3
2023-02-27T10:14:19.492Z,73.9
2023-02-27T10:15:35.730Z,73.1
2023-02-27T10:16:51.979Z,73.9
2023-02-27T10:18:08.219Z,73.8
2023-02-27T10:19:24.457Z,72.8
2023-02-27T10:20:40.694Z,72.4
2023-02-27T10:21:55.965Z,72.9
2023-02-27T10:23:12.193Z,72.5
2023-02-27T10:24:28.000Z,73
2023-02-27T10:25:44.681Z,71.8
2023-02-27T10:27:00.919Z,72.7
2023-02-27T10:28:17.147Z,72.9
2023-02-27T10:29:33.392Z,73.5
2023-02-27T10:30:49.638Z,73.7
2023-02-27T10:32:05.867Z,73.6
2023-02-27T10:33:22.123Z,72.9
2023-02-27T10:34:38.355Z,73
2023-02-27T10:35:54.584Z,73.3
2023-02-27T10:37:10.000Z,73.5
2023-02-27T10:38:26.088Z,72.3
2023-02-27T10:39:42.321Z,72.2
2023-02-27T10:40:58.564Z,72.1
2023-02-27T10:42:14.810Z,72
2023-02-27T10:43:31.053Z,71.6
2023-02-27T10:44:47.296Z,72
2023-02-27T10:46:03.531Z,71.8
2023-02-27T10:47:19.771Z,71
2023-02-27T10:48:36.013Z,71.2
2023-02-27T10:49:52.254Z,70.4
2023-02-27T10:51:08.495Z,71.2
2023-02-27T10:52:24.724Z,70.6
2023-02-27T10:53:40.980Z,70.3
2023-02-27T10:54:56.215Z,70.1
2023-02-27T10:56:12.475Z,68.7
2023-02-27T10:57:28.709Z,69.4
2023-02-27T10:58:44.949Z,69.6
2023-02-27T11:00:01.186Z,69.9
2023-02-27T11:01:17.429Z,70.3
2023-02-27T11:02:33.676Z,69.7
2023-02-27T11:03:49.900Z,68.8
2023-02-27T11:05:06.150Z,68.5
2023-02-27T11:06:22.383Z,69
2023-02-27T11:07:38.635Z,68.4
2023-02-27T11:08:54.869Z,67.6
2023-02-27T11:10:11.101Z,67.9
2023-02-27T11:11:26.359Z,67.1
2023-02-27T11:12:42.590Z,67.2
2023-02-27T11:13:58.834Z,66.9
2023-02-27T11:15:15.075Z,66.8
2023-02-27T11:16:31.314Z,66.2
2023-02-27T11:17:47.554Z,67.3
2023-02-27T11:19:03.802Z,67.6
2023-02-27T11:20:20.031Z,66.6
2023-02-27T11:21:36.279Z,64.9
2023-02-27T11:22:52.509Z,64.9
2023-02-27T11:24:08.753Z,66
2023-02-27T11:25:24.994Z,66.4
2023-02-27T11:26:41.230Z,66.5
2023-02-27T11:27:56.506Z,67.1
2023-02-27T11:29:12.731Z,66.3
2023-02-27T11:30:28.961Z,66.5
2023-02-27T11:31:45.208Z,63.7
2023-02-27T11:33:01.459Z,61.8
2023-02-27T11:34:17.682Z,62.4
2023-02-27T11:35:33.926Z,64.3
2023-02-27T11:36:50.165Z,65.5
2023-02-27T11:38:06.413Z,67.5
2023-02-27T11:39:22.642Z,66.6
2023-02-27T11:40:38.881Z,66.5
2023-02-27T11:41:55.118Z,67
2023-02-27T11:43:11.379Z,66.2
2023-02-27T11:44:26.628Z,66.4
2023-02-27T11:45:42.866Z,65.9
2023-02-27T11:46:59.103Z,66.4
2023-02-27T11:48:15.349Z,66.2
2023-02-27T11:49:31.573Z,65.8
2023-02-27T11:50:47.820Z,66.6
2023-02-27T11:52:04.056Z,64.5
2023-02-27T11:53:20.302Z,63.8
2023-02-27T11:54:36.536Z,63.3
2023-02-27T11:55:52.793Z,61.4
2023-02-27T11:57:09.031Z,61.3
2023-02-27T11:58:25.272Z,62
2023-02-27T11:59:41.512Z,61.6
2023-02-27T12:00:56.753Z,62.1
2023-02-27T12:02:12.995Z,64.3
2023-02-27T12:03:29.248Z,63.8
2023-02-27T12:04:45.470Z,64.1
2023-02-27T12:06:01.711Z,64.8
2023-02-27T12:07:17.957Z,64.4
2023-02-27T12:08:34.192Z,65.1
2023-02-27T12:09:50.430Z,64.7
2023-02-27T12:11:06.669Z,63.2
2023-02-27T12:12:22.925Z,62.7
2023-02-27T12:14:55.392Z,62.8
2023-02-27T12:16:11.627Z,63.3
2023-02-27T12:17:26.878Z,63.3
2023-02-27T12:18:43.120Z,63.5
2023-02-27T12:19:59.372Z,64
2023-02-27T12:21:15.615Z,64
2023-02-27T12:22:31.843Z,64.1
2023-02-27T12:23:47.112Z,64
2023-02-27T12:25:03.362Z,65.2
2023-02-27T12:26:19.591Z,65.3
2023-02-27T12:27:35.829Z,65.5
2023-02-27T12:28:52.083Z,65.2
2023-02-27T12:30:08.309Z,65
2023-02-27T12:31:24.542Z,65.3
2023-02-27T12:32:40.789Z,65.6
2023-02-27T12:33:57.038Z,65.7
2023-02-27T12:35:13.262Z,65.1
2023-02-27T12:36:29.515Z,64.6
2023-02-27T12:37:45.763Z,65.4
2023-02-27T12:39:01.984Z,66
2023-02-27T12:40:17.241Z,66.4
2023-02-27T12:41:33.483Z,66.9
2023-02-27T12:42:49.722Z,67
2023-02-27T12:44:05.963Z,67.9
2023-02-27T12:45:22.206Z,68.4
2023-02-27T12:46:38.440Z,68.2
2023-02-27T12:47:54.684Z,68.6
2023-02-27T12:49:10.918Z,68.5
2023-02-27T12:50:27.167Z,68.9
2023-02-27T12:51:43.404Z,69.4
2023-02-27T12:52:59.637Z,70
2023-02-27T12:54:15.877Z,68.7
2023-02-27T12:55:32.113Z,69
2023-02-27T12:56:47.375Z,69.2
2023-02-27T12:58:03.621Z,69.2
2023-02-27T12:59:19.866Z,69.8
2023-02-27T13:00:36.107Z,69.2
2023-02-27T13:01:52.343Z,68
2023-02-27T13:03:08.576Z,68.8
2023-02-27T13:04:24.816Z,68.9
2023-02-27T13:05:41.060Z,69
2023-02-27T13:06:57.292Z,69
2023-02-27T13:08:13.537Z,68.3
2023-02-27T13:09:29.773Z,68.4
2023-02-27T13:10:46.015Z,67.2
2023-02-27T13:12:02.262Z,67
2023-02-27T13:13:17.509Z,67
2023-02-27T13:14:33.750Z,67
2023-02-27T13:15:50.007Z,67.4
2023-02-27T13:17:06.229Z,67.1
2023-02-27T13:18:22.468Z,68
2023-02-27T13:19:38.716Z,67.3
2023-02-27T13:20:54.953Z,65.6
2023-02-27T13:22:11.202Z,65.3
2023-02-27T13:23:27.424Z,66.4
2023-02-27T13:24:43.674Z,64.7
2023-02-27T13:25:59.908Z,64.3
2023-02-27T13:27:16.148Z,65.1
2023-02-27T13:28:32.387Z,65.7
2023-02-27T13:29:47.651Z,66.2
2023-02-27T13:31:03.878Z,67
2023-02-27T13:32:20.126Z,66.6
2023-02-27T13:33:36.373Z,67.5
2023-02-27T13:34:52.598Z,67.2
2023-02-27T13:36:08.836Z,66.8
2023-02-27T13:37:25.086Z,67.5
2023-02-27T13:38:41.321Z,67.2
2023-02-27T13:39:57.555Z,67.6
2023-02-27T13:41:13.806Z,66.7
2023-02-27T13:42:30.044Z,66.2
2023-02-27T13:43:46.286Z,65.9
2023-02-27T13:45:02.527Z,66
2023-02-27T13:46:17.771Z,65.3
2023-02-27T13:47:34.009Z,65
2023-02-27T13:48:50.261Z,65.6
2023-02-27T13:50:06.496Z,65.2
2023-02-27T13:51:22.729Z,64.3
2023-02-27T13:52:38.974Z,64.5
2023-02-27T13:53:55.221Z,64.8
2023-02-27T13:55:11.454Z,65
2023-02-27T13:56:27.694Z,64.8
2023-02-27T13:57:43.948Z,65.8
2023-02-27T13:59:00.179Z,66.3
2023-02-27T14:00:16.431Z,67.1
2023-02-27T14:01:32.652Z,67.5
2023-02-27T14:02:47.910Z,67
2023-02-27T14:04:04.154Z,68
2023-02-27T14:05:20.392Z,68.5
2023-02-27T14:06:36.635Z,69
2023-02-27T14:07:52.869Z,67.3
2023-02-27T14:09:09.112Z,67.3
2023-02-27T14:10:25.356Z,68
2023-02-27T14:11:41.583Z,68.3
2023-02-27T14:12:57.830Z,66.6
2023-02-27T14:14:14.071Z,65.7
2023-02-27T14:15:30.319Z,65.7
2023-02-27T14:16:46.559Z,65.9
2023-02-27T14:18:02.787Z,66.2
2023-02-27T14:19:18.039Z,66.1
2023-02-27T14:20:34.290Z,65.6
2023-02-27T14:21:50.526Z,66.1
2023-02-27T14:23:06.767Z,66.1
2023-02-27T14:24:23.016Z,66.4
2023-02-27T14:25:39.255Z,67.4
2023-02-27T14:26:55.487Z,67.8
2023-02-27T14:28:11.722Z,68.8
2023-02-27T14:29:27.979Z,68.8
2023-02-27T14:30:44.199Z,68.4
2023-02-27T14:32:00.445Z,68.6
2023-02-27T14:33:16.682Z,68.3
2023-02-27T14:34:32.928Z,68.4
2023-02-27T14:35:48.191Z,69.2
2023-02-27T14:37:04.415Z,70
2023-02-27T14:38:20.663Z,70.8
2023-02-27T14:39:36.896Z,71.4
2023-02-27T14:40:53.145Z,71.9
2023-02-27T14:42:09.390Z,71.8
2023-02-27T14:43:25.624Z,72.2
2023-02-27T14:44:41.857Z,72.4
2023-02-27T14:45:58.099Z,72.1
2023-02-27T14:47:14.342Z,71.8
2023-02-27T14:48:30.576Z,71.8
2023-02-27T14:49:46.812Z,72.8
2023-02-27T14:51:03.071Z,72.4
2023-02-27T14:52:18.319Z,73
2023-02-27T14:53:34.557Z,73
2023-02-27T14:54:50.806Z,73.5
2023-02-27T14:56:07.031Z,73.3
2023-02-27T14:57:23.271Z,73.3
2023-02-27T14:58:39.508Z,72.9
2023-02-27T14:59:55.763Z,73.1
2023-02-27T15:01:11.996Z,72.5
2023-02-27T15:02:28.247Z,72.5
2023-02-27T15:03:44.473Z,72.6
2023-02-27T15:05:00.712Z,72.5
2023-02-27T15:06:16.961Z,72.4
2023-02-27T15:07:33.191Z,72.8
2023-02-27T15:08:48.459Z,72.7
2023-02-27T15:10:04.683Z,72.9
2023-02-27T15:11:20.925Z,72.4
2023-02-27T15:12:37.160Z,72.5
2023-02-27T15:13:53.401Z,72.7
2023-02-27T15:15:09.651Z,72.4
2023-02-27T15:16:25.900Z,72.3
2023-02-27T15:17:42.118Z,72.2
2023-02-27T15:18:58.367Z,72.7
2023-02-27T15:20:14.600Z,72.7
2023-02-27T15:21:30.843Z,72.3
2023-02-27T15:22:47.084Z,72.3
2023-02-27T15:24:03.338Z,72.8
2023-02-27T15:25:18.585Z,72.8
2023-02-27T15:26:34.828Z,72.7
2023-02-27T15:27:51.074Z,72.9
2023-02-27T15:29:07.299Z,73.2
2023-02-27T15:30:23.539Z,73.1
2023-02-27T15:31:39.780Z,73.3
2023-02-27T15:32:56.019Z,73.3
2023-02-27T15:34:12.252Z,73.2
2023-02-27T15:35:28.511Z,73.2
2023-02-27T15:36:44.743Z,73.1
2023-02-27T15:38:00.983Z,71.4
2023-02-27T15:39:17.216Z,73
2023-02-27T15:40:33.461Z,73.3
2023-02-27T15:41:48.732Z,73.6
2023-02-27T15:43:04.964Z,73.8
2023-02-27T15:44:21.196Z,73.7
2023-02-27T15:45:37.431Z,73.5
2023-02-27T15:46:53.681Z,73.2
2023-02-27T15:48:09.908Z,72.9
2023-02-27T15:49:26.144Z,72.2
2023-02-27T15:50:42.385Z,71.3
2023-02-27T15:51:58.627Z,71.7
2023-02-27T15:53:14.866Z,71.8
2023-02-27T15:54:31.113Z,72.4
2023-02-27T15:55:47.357Z,73.1
2023-02-27T15:57:03.594Z,71.3
2023-02-27T15:58:18.844Z,70.3
2023-02-27T15:59:35.079Z,70.4
2023-02-27T16:00:51.332Z,69.3
2023-02-27T16:02:07.580Z,69.5
2023-02-27T16:03:23.800Z,68.9
2023-02-27T16:04:40.051Z,67.5
2023-02-27T16:05:56.285Z,66
2023-02-27T16:07:12.524Z,65.1
2023-02-27T16:08:28.774Z,63.8
2023-02-27T16:09:45.021Z,63.4
2023-02-27T16:11:01.254Z,63.7
2023-02-27T16:12:17.491Z,63.8
2023-02-27T16:13:33.733Z,63.2
2023-02-27T16:14:48.986Z,62.8
2023-02-27T16:16:05.229Z,63
2023-02-27T16:17:21.475Z,63.2
2023-02-27T16:18:37.714Z,63.6
2023-02-27T16:19:53.948Z,64.1
2023-02-27T16:21:10.179Z,63.5
2023-02-27T16:22:26.426Z,64.1
2023-02-27T16:23:42.655Z,63.9
2023-02-27T16:24:58.922Z,63.6
2023-02-27T16:26:15.146Z,63.9
2023-02-27T16:27:31.392Z,64.3
2023-02-27T16:28:47.617Z,64.5
2023-02-27T16:30:03.872Z,64.1
2023-02-27T16:31:19.126Z,64.5
2023-02-27T16:32:35.363Z,64.5
2023-02-27T16:33:51.603Z,64.6
2023-02-27T16:35:07.841Z,64.4
2023-02-27T16:36:24.086Z,63.6
2023-02-27T16:37:40.327Z,64.6
2023-02-27T16:38:55.584Z,64.6
2023-02-27T16:40:11.831Z,64.2
2023-02-27T16:41:28.067Z,64.7
2023-02-27T16:42:44.300Z,64.8
2023-02-27T16:44:00.559Z,65
2023-02-27T16:45:16.779Z,64.8
2023-02-27T16:46:33.029Z,65.1
2023-02-27T16:47:49.272Z,65.6
2023-02-27T16:49:05.511Z,65.7
2023-02-27T16:50:21.750Z,65.9
2023-02-27T16:51:37.000Z,66
2023-02-27T16:52:54.227Z,65.1
2023-02-27T16:54:10.475Z,65.1
2023-02-27T16:55:26.831Z,65.3
2023-02-27T16:56:43.062Z,65.2
2023-02-27T16:57:59.315Z,65.3
2023-02-27T16:59:15.553Z,64.8
2023-02-27T17:00:31.797Z,63.3
2023-02-27T17:01:48.046Z,62.6
2023-02-27T17:03:04.287Z,62.6